Time;durP1;ratioP1;P1;durP2;ratioP2;P2;SDS_P1;SDS_P2;PMS_P1;PMS_P2;Temp;Humidity;BMP_temperature;BMP_pressure;BME280_temperature;BME280_humidity;BME280_pressure;Samples;Min_cycle;Max_cycle;Signal;HPM_P1;HPM_P2
2022/09/10 00:02:19;;;;;;;62.33;45.67;;;;;;;31.13;73.34;98272.41;4856585;29;20053;-68
2022/09/10 00:05:23;;;;;;;68.30;45.78;;;;;;;31.15;73.63;98272.84;4865587;29;20057;-68
2022/09/10 00:08:33;;;;;;;63.25;44.78;;;;;;;31.09;73.57;98269.53;4852192;29;20052;-68
2022/09/10 00:11:37;;;;;;;67.20;46.72;;;;;;;31.09;73.95;98265.94;4864006;29;20101;-69
2022/09/10 00:14:46;;;;;;;63.42;46.40;;;;;;;31.16;73.32;98260.56;4854614;29;20049;-68
2022/09/10 00:17:48;;;;;;;64.90;47.03;;;;;;;31.02;73.42;98278.47;4863745;29;20156;-68
2022/09/10 00:21:01;;;;;;;66.10;47.58;;;;;;;31.00;73.39;98275.28;4863093;29;20041;-68
2022/09/10 00:24:04;;;;;;;63.35;47.28;;;;;;;31.17;73.17;98279.63;4864808;29;20481;-68
2022/09/10 00:27:14;;;;;;;65.10;48.28;;;;;;;31.08;73.50;98276.25;4862671;29;20521;-68
2022/09/10 00:30:19;;;;;;;67.87;48.93;;;;;;;31.08;73.52;98275.44;4850065;29;20046;-68
2022/09/10 00:33:28;;;;;;;57.85;46.42;;;;;;;31.02;73.43;98278.47;4856032;29;20065;-69
2022/09/10 00:36:34;;;;;;;63.10;47.00;;;;;;;30.70;74.48;98282.44;4851877;29;20617;-69
2022/09/10 00:39:43;;;;;;;65.53;45.75;;;;;;;31.00;73.30;98285.56;4865575;29;20473;-69
2022/09/10 00:42:54;;;;;;;56.30;45.40;;;;;;;31.18;73.26;98291.50;4865299;29;20057;-68
2022/09/10 00:46:03;;;;;;;62.88;46.63;;;;;;;31.03;73.09;98291.19;4869186;29;20112;-69
2022/09/10 00:49:24;;;;;;;66.00;46.92;;;;;;;30.93;73.32;98297.25;4862457;29;20045;-68
2022/09/10 00:52:35;;;;;;;66.63;48.05;;;;;;;31.06;72.88;98299.94;4846497;29;20185;-68
2022/09/10 00:55:49;;;;;;;63.58;48.45;;;;;;;30.96;73.69;98301.31;4845361;29;20611;-69
2022/09/10 00:58:58;;;;;;;55.75;46.95;;;;;;;31.00;73.73;98308.53;4847276;29;20081;-68
2022/09/10 01:02:02;;;;;;;57.63;45.67;;;;;;;30.98;73.67;98304.50;4845694;29;20063;-69
2022/09/10 01:05:12;;;;;;;58.13;45.20;;;;;;;31.10;73.67;98300.81;4837771;29;20061;-69
2022/09/10 01:08:23;;;;;;;61.50;46.38;;;;;;;31.03;73.77;98309.75;4844829;29;20054;-68
2022/09/10 01:11:32;;;;;;;59.42;47.42;;;;;;;31.20;73.11;98311.34;4851559;29;20054;-68
2022/09/10 01:15:00;;;;;;;69.63;48.10;;;;;;;31.16;72.50;98318.78;4833615;29;20049;-69
2022/09/10 01:18:05;;;;;;;65.35;47.50;;;;;;;31.20;72.85;98316.88;4833378;29;20053;-68
2022/09/10 01:22:01;;;;;;;60.05;47.28;;;;;;;31.11;72.98;98319.03;4840386;29;20056;-68
2022/09/10 01:25:35;;;;;;;61.47;46.67;;;;;;;31.10;72.82;98318.25;4855541;29;20042;-67
2022/09/10 01:28:41;;;;;;;68.60;47.45;;;;;;;31.22;73.05;98320.09;4841579;29;20053;-68
2022/09/10 01:32:15;;;;;;;65.40;45.58;;;;;;;31.19;72.72;98320.84;4841364;29;20242;-69
2022/09/10 01:35:21;;;;;;;66.60;44.78;;;;;;;30.83;73.04;98326.28;4856798;29;20381;-68
2022/09/10 01:38:34;;;;;;;57.95;44.10;;;;;;;31.18;72.42;98330.31;4838708;29;20050;-68
2022/09/10 01:41:38;;;;;;;62.53;44.55;;;;;;;31.12;72.97;98315.91;4837390;29;20487;-68
2022/09/10 01:44:52;;;;;;;57.50;43.83;;;;;;;31.44;72.96;98317.81;4821178;29;20399;-69
2022/09/10 01:48:21;;;;;;;60.95;44.88;;;;;;;31.38;72.52;98325.63;4838970;29;20132;-69
2022/09/10 01:51:55;;;;;;;59.03;44.85;;;;;;;31.63;71.69;98320.66;4815270;29;20399;-69
2022/09/10 01:55:21;;;;;;;53.40;43.10;;;;;;;31.42;72.09;98318.19;4821992;29;20054;-68
2022/09/10 01:58:46;;;;;;;54.80;40.85;;;;;;;31.60;70.84;98326.91;4824735;29;20533;-68
2022/09/10 02:02:36;;;;;;;56.78;40.65;;;;;;;31.77;69.72;98323.69;4822441;29;20054;-68
2022/09/10 02:05:42;;;;;;;51.55;39.08;;;;;;;31.87;69.10;98322.31;4829566;29;20060;-69
2022/09/10 02:08:55;;;;;;;51.63;39.45;;;;;;;31.86;69.41;98319.94;4844263;29;20534;-69
2022/09/10 02:12:05;;;;;;;47.42;35.72;;;;;;;31.90;69.35;98329.13;4845403;29;20054;-69
2022/09/10 02:15:17;;;;;;;47.30;36.15;;;;;;;31.89;68.93;98324.72;4845324;29;20065;-69
2022/09/10 02:18:45;;;;;;;45.92;35.90;;;;;;;32.01;67.61;98324.59;4844667;29;20190;-69
2022/09/10 02:21:49;;;;;;;44.53;37.25;;;;;;;32.12;67.84;98322.84;4844877;29;20057;-69
2022/09/10 02:24:58;;;;;;;50.90;35.55;;;;;;;32.24;67.37;98324.66;4844670;29;20049;-69
2022/09/10 02:28:01;;;;;;;51.13;37.17;;;;;;;32.25;67.21;98323.47;4844907;29;20603;-69
2022/09/10 02:31:11;;;;;;;45.42;35.65;;;;;;;32.34;67.49;98318.50;4844628;29;20116;-69
2022/09/10 02:34:15;;;;;;;43.17;35.13;;;;;;;32.36;67.57;98327.25;4845324;29;20063;-69
2022/09/10 02:37:27;;;;;;;44.42;35.63;;;;;;;32.37;67.66;98328.06;4835355;29;20049;-69
2022/09/10 02:40:30;;;;;;;51.38;37.20;;;;;;;32.19;67.68;98336.84;4858214;29;20055;-69
2022/09/10 02:43:41;;;;;;;42.25;34.92;;;;;;;32.73;66.20;98323.16;4856891;29;20049;-69
2022/09/10 02:46:44;;;;;;;49.05;35.25;;;;;;;32.42;66.82;98338.06;4843706;29;20046;-69
2022/09/10 02:49:53;;;;;;;51.83;36.63;;;;;;;32.49;66.81;98347.34;4864036;29;20056;-70
2022/09/10 02:53:11;;;;;;;47.97;36.10;;;;;;;32.41;66.73;98340.06;4881131;29;20071;-69
2022/09/10 02:56:11;;;;;;;47.85;36.42;;;;;;;32.81;66.82;98337.97;4877507;29;20064;-69
2022/09/10 02:59:21;;;;;;;50.05;37.08;;;;;;;32.83;65.27;98355.91;4879829;29;20456;-69
2022/09/10 03:02:30;;;;;;;45.17;35.58;;;;;;;32.94;65.14;98347.72;4881618;29;20180;-68
2022/09/10 03:05:40;;;;;;;45.88;35.28;;;;;;;33.24;64.19;98345.03;4880811;29;20044;-69
2022/09/10 03:08:50;;;;;;;47.15;34.10;;;;;;;33.27;64.50;98347.09;4893885;29;20068;-69
2022/09/10 03:11:59;;;;;;;45.33;33.65;;;;;;;33.25;63.71;98351.41;4893026;29;20131;-69
2022/09/10 03:15:09;;;;;;;43.28;33.05;;;;;;;33.47;66.22;98356.09;4879147;29;20064;-69
2022/09/10 03:18:11;;;;;;;46.13;33.90;;;;;;;33.58;62.46;98366.59;4893398;29;20064;-68
2022/09/10 03:21:27;;;;;;;48.42;34.05;;;;;;;33.37;64.00;98367.09;4856650;29;20053;-69
2022/09/10 03:24:29;;;;;;;45.92;33.63;;;;;;;33.34;62.65;98365.84;4844005;29;20064;-69
2022/09/10 03:27:39;;;;;;;45.83;34.17;;;;;;;33.84;62.41;98372.16;4855414;29;20085;-69
2022/09/10 03:30:49;;;;;;;44.60;33.70;;;;;;;33.91;61.87;98374.19;4847086;29;20132;-69
2022/09/10 03:33:52;;;;;;;41.15;33.50;;;;;;;34.02;61.81;98377.94;4851343;29;20240;-68
2022/09/10 03:37:00;;;;;;;52.63;34.47;;;;;;;34.00;62.36;98385.06;4859733;29;20060;-68
2022/09/10 03:40:10;;;;;;;43.45;34.40;;;;;;;34.16;64.40;98388.47;4861031;29;20152;-67
2022/09/10 03:43:14;;;;;;;51.78;33.20;;;;;;;33.81;62.46;98400.72;4872386;29;20077;-67
2022/09/10 03:46:23;;;;;;;43.28;32.83;;;;;;;34.22;63.09;98394.50;4859575;29;20053;-67
2022/09/10 03:49:28;;;;;;;43.42;32.58;;;;;;;34.35;62.51;98403.41;4859883;29;20109;-68
2022/09/10 03:52:45;;;;;;;42.28;32.25;;;;;;;34.52;61.03;98408.38;4860793;29;20057;-67
2022/09/10 03:55:55;;;;;;;42.17;31.30;;;;;;;34.40;59.58;98417.00;4856376;29;20124;-68
2022/09/10 03:58:57;;;;;;;49.25;34.97;;;;;;;34.33;58.96;98418.50;4860603;29;20474;-67
2022/09/10 04:02:08;;;;;;;38.78;32.38;;;;;;;34.33;59.42;98417.72;4854328;29;20060;-68
2022/09/10 04:05:17;;;;;;;47.70;33.17;;;;;;;34.58;59.72;98423.56;4853730;29;20053;-68
2022/09/10 04:08:20;;;;;;;46.40;31.88;;;;;;;34.49;57.74;98429.44;4878649;29;20163;-67
2022/09/10 04:11:28;;;;;;;48.10;32.95;;;;;;;34.58;58.49;98433.91;4864888;29;20053;-67
2022/09/10 04:14:30;;;;;;;52.88;31.17;;;;;;;34.56;58.23;98430.69;4879328;29;20045;-66
2022/09/10 04:17:41;;;;;;;45.17;33.72;;;;;;;34.61;59.68;98438.72;4868559;29;20049;-68
2022/09/10 04:20:49;;;;;;;49.45;31.23;;;;;;;34.48;58.60;98449.31;4866387;29;20059;-68
2022/09/10 04:24:01;;;;;;;37.28;30.20;;;;;;;34.67;59.06;98440.81;4881808;29;20049;-66
2022/09/10 04:27:05;;;;;;;40.67;29.83;;;;;;;34.98;56.99;98447.06;4868614;29;20140;-68
2022/09/10 04:30:15;;;;;;;41.85;29.55;;;;;;;35.55;55.81;98452.34;4876825;29;20104;-69
2022/09/10 04:33:24;;;;;;;38.90;30.25;;;;;;;35.48;54.88;98450.31;4880764;29;20052;-68
2022/09/10 04:36:26;;;;;;;40.40;30.67;;;;;;;35.72;57.35;98444.53;4882131;29;20389;-68
2022/09/10 04:39:53;;;;;;;37.85;31.73;;;;;;;35.49;56.50;98453.91;4878484;29;20583;-68
2022/09/10 04:43:03;;;;;;;42.10;30.05;;;;;;;35.68;55.21;98453.69;4865921;29;20104;-69
2022/09/10 04:46:13;;;;;;;41.10;32.00;;;;;;;35.76;54.48;98443.34;4854693;29;20184;-68
2022/09/10 04:49:17;;;;;;;36.80;29.75;;;;;;;36.43;54.56;98444.09;4849529;29;20041;-69
2022/09/10 04:52:27;;;;;;;42.65;31.17;;;;;;;36.34;53.31;98447.25;4868295;29;20087;-68
2022/09/10 04:55:32;;;;;;;37.80;30.15;;;;;;;36.63;53.83;98441.75;4864871;29;20525;-69
2022/09/10 04:58:42;;;;;;;39.47;33.50;;;;;;;36.65;53.01;98433.81;4865409;29;20083;-69
2022/09/10 05:01:49;;;;;;;42.00;32.38;;;;;;;35.75;54.17;98429.78;4878059;29;20061;-67
2022/09/10 05:05:00;;;;;;;42.53;31.10;;;;;;;35.61;54.73;98422.09;4868578;29;20745;-69
2022/09/10 05:08:04;;;;;;;38.28;28.73;;;;;;;36.72;53.68;98428.22;4859747;29;20107;-69
2022/09/10 05:11:20;;;;;;;38.67;27.20;;;;;;;37.17;53.03;98425.09;4872991;29;20217;-69
2022/09/10 05:14:32;;;;;;;43.88;28.00;;;;;;;36.43;53.08;98425.31;4856939;29;20389;-68
2022/09/10 05:17:34;;;;;;;33.08;26.67;;;;;;;36.67;54.69;98419.41;4868104;29;20049;-68
2022/09/10 05:20:44;;;;;;;36.58;26.65;;;;;;;37.35;50.62;98408.28;4847701;29;20059;-69
2022/09/10 05:23:46;;;;;;;35.57;26.60;;;;;;;37.40;51.78;98396.69;4858366;29;20065;-68
2022/09/10 05:26:58;;;;;;;32.58;26.55;;;;;;;37.08;53.00;98391.09;4858247;29;20292;-69
2022/09/10 05:30:07;;;;;;;37.88;28.25;;;;;;;37.00;51.64;98387.50;4882932;29;20044;-67
2022/09/10 05:33:11;;;;;;;38.90;27.42;;;;;;;37.76;50.77;98374.25;4860200;29;20049;-68
2022/09/10 05:36:21;;;;;;;36.70;28.20;;;;;;;37.29;50.86;98390.31;4865777;29;20500;-68
2022/09/10 05:39:25;;;;;;;32.90;26.90;;;;;;;37.29;51.05;98382.72;4863271;29;20053;-69
2022/09/10 05:42:37;;;;;;;32.95;26.90;;;;;;;37.73;50.23;98369.44;4876910;29;20052;-68
2022/09/10 05:45:53;;;;;;;42.67;27.63;;;;;;;37.26;52.41;98366.72;4856050;29;20069;-68
2022/09/10 05:49:11;;;;;;;35.03;27.58;;;;;;;36.03;53.98;98360.09;4864519;29;20161;-69
2022/09/10 05:52:25;;;;;;;38.47;25.95;;;;;;;36.66;54.05;98362.72;4852938;29;20056;-67
2022/09/10 05:55:44;;;;;;;37.97;28.90;;;;;;;36.94;53.21;98355.53;4858250;29;20053;-68
2022/09/10 05:58:57;;;;;;;32.00;27.83;;;;;;;36.34;54.07;98348.66;4863495;29;20135;-70
2022/09/10 06:02:12;;;;;;;31.52;26.92;;;;;;;36.72;52.88;98338.75;4860653;29;20081;-69
2022/09/10 06:05:21;;;;;;;32.83;27.83;;;;;;;36.63;54.86;98338.31;4854968;29;20060;-69
2022/09/10 06:08:33;;;;;;;32.50;26.42;;;;;;;37.55;52.22;98321.88;4860252;29;20060;-67
2022/09/10 06:11:48;;;;;;;;;;;;;;;37.08;52.48;98326.75;4849954;29;20145;-71
2022/09/10 06:15:06;;;;;;;32.22;25.33;;;;;;;36.84;50.55;98318.78;4869399;29;19928;-68
2022/09/10 06:18:14;;;;;;;36.42;29.63;;;;;;;36.91;54.06;98314.38;4843753;29;20556;-71
2022/09/10 06:21:28;;;;;;;31.75;25.88;;;;;;;37.27;51.00;98305.97;4857626;29;20674;-67
2022/09/10 06:24:39;;;;;;;36.15;26.83;;;;;;;36.29;55.58;98316.31;4848729;29;20057;-69
2022/09/10 06:27:49;;;;;;;42.85;29.23;;;;;;;36.50;56.93;98314.72;4857665;29;20047;-71
2022/09/10 06:31:13;;;;;;;33.33;28.25;;;;;;;36.51;56.17;98302.38;4847681;29;20060;-67
2022/09/10 06:34:21;;;;;;;41.38;28.98;;;;;;;37.02;57.15;98306.78;4860711;29;20099;-69
2022/09/10 06:37:39;;;;;;;32.10;27.08;;;;;;;37.29;50.66;98287.56;4875458;29;20535;-68
2022/09/10 06:40:59;;;;;;;44.80;28.35;;;;;;;36.91;51.41;98308.78;4851928;29;20477;-67
2022/09/10 06:44:22;;;;;;;42.15;30.23;;;;;;;37.05;53.44;98286.38;4869916;29;20044;-68
2022/09/10 06:47:41;;;;;;;41.05;29.83;;;;;;;37.25;53.83;98280.38;4865830;29;20187;-67
2022/09/10 06:51:17;;;;;;;42.40;29.58;;;;;;;37.34;50.48;98275.97;4867371;29;20131;-68
2022/09/10 06:54:30;;;;;;;46.90;34.58;;;;;;;35.61;58.22;98282.53;4865582;29;20080;-67
2022/09/10 06:58:02;;;;;;;35.53;27.88;;;;;;;36.50;56.33;98282.00;4880709;29;20045;-68
2022/09/10 07:01:17;;;;;;;41.83;27.88;;;;;;;35.94;57.89;98280.69;4866143;29;20501;-65
2022/09/10 07:04:32;;;;;;;35.13;27.92;;;;;;;35.23;60.00;98282.72;4540035;29;9999645;-66
2022/09/10 07:07:56;;;;;;;46.03;29.50;;;;;;;35.26;58.82;98276.38;4877889;29;20544;-69
2022/09/10 07:11:14;;;;;;;39.33;29.80;;;;;;;35.49;59.76;98276.09;4858117;29;20063;-67
2022/09/10 07:14:32;;;;;;;45.83;30.50;;;;;;;36.18;58.69;98265.22;4871890;29;20681;-67
2022/09/10 07:17:46;;;;;;;36.10;27.63;;;;;;;36.64;54.68;98272.81;4853578;29;20059;-67
2022/09/10 07:21:00;;;;;;;38.40;29.23;;;;;;;35.80;58.02;98273.84;4845457;29;20584;-68
2022/09/10 07:24:13;;;;;;;38.08;31.20;;;;;;;35.92;59.01;98257.94;4856769;29;20048;-69
2022/09/10 07:27:36;;;;;;;36.03;30.52;;;;;;;35.85;58.81;98261.53;4844799;29;20140;-69
2022/09/10 07:30:49;;;;;;;39.50;29.50;;;;;;;36.21;57.70;98256.84;4844749;29;20774;-68
2022/09/10 07:33:51;;;;;;;37.28;30.00;;;;;;;36.37;57.65;98239.69;4844907;29;20065;-69
2022/09/10 07:37:02;;;;;;;39.45;30.83;;;;;;;35.97;55.99;98241.59;4853768;29;20102;-69
2022/09/10 07:40:06;;;;;;;145.35;36.33;;;;;;;35.90;55.92;98230.41;4849311;29;20048;-68
2022/09/10 07:43:16;;;;;;;40.60;32.50;;;;;;;35.90;56.57;98224.81;4848544;29;20121;-66
2022/09/10 07:46:27;;;;;;;41.25;33.70;;;;;;;35.58;59.11;98219.94;4846335;29;20548;-69
2022/09/10 07:49:38;;;;;;;42.28;35.78;;;;;;;35.74;59.53;98221.59;4849375;29;20108;-69
2022/09/10 07:52:46;;;;;;;43.30;32.75;;;;;;;35.55;59.68;98212.34;4847679;29;20788;-68
2022/09/10 07:56:10;;;;;;;43.10;32.35;;;;;;;35.79;57.38;98205.25;4861953;29;20708;-70
2022/09/10 07:59:29;;;;;;;45.20;31.27;;;;;;;35.74;58.56;98193.69;4828306;29;20058;-70
2022/09/10 08:02:28;;;;;;;40.53;31.13;;;;;;;36.06;57.16;98191.72;4825455;29;20111;-70
2022/09/10 08:05:52;;;;;;;34.10;30.05;;;;;;;36.37;56.51;98186.56;4826134;29;20218;-69
2022/09/10 08:08:59;;;;;;;42.22;29.40;;;;;;;36.36;56.96;98184.97;4843173;29;20226;-68
2022/09/10 08:12:16;;;;;;;36.95;28.00;;;;;;;35.87;55.36;98180.94;4825668;29;20136;-72
2022/09/10 08:15:19;;;;;;;42.70;28.60;;;;;;;35.79;57.78;98177.34;4823707;29;20064;-71
2022/09/10 08:18:31;;;;;;;34.78;28.33;;;;;;;35.87;58.50;98167.00;4820587;29;20790;-72
2022/09/10 08:21:40;;;;;;;39.72;28.42;;;;;;;35.77;59.07;98151.00;4826860;29;20052;-69
2022/09/10 08:24:57;;;;;;;32.30;27.77;;;;;;;36.23;55.79;98139.91;4819637;29;20125;-68
2022/09/10 08:28:01;;;;;;;32.10;26.05;;;;;;;36.49;56.84;98145.44;4493782;29;10000794;-68
2022/09/10 08:31:12;;;;;;;35.80;27.83;;;;;;;36.76;55.55;98132.63;4827583;29;20869;-67
2022/09/10 08:34:31;;;;;;;38.97;27.38;;;;;;;36.04;56.03;98129.09;4824057;29;20053;-68
2022/09/10 08:37:43;;;;;;;31.13;24.85;;;;;;;36.29;54.19;98129.13;4491977;29;10000642;-68
2022/09/10 08:40:58;;;;;;;36.28;26.25;;;;;;;36.41;55.15;98123.09;4834720;29;20600;-67
2022/09/10 08:44:22;;;;;;;33.30;26.25;;;;;;;36.49;54.90;98117.50;4825456;29;20053;-68
2022/09/10 08:47:38;;;;;;;37.42;28.27;;;;;;;36.41;56.53;98117.50;4498817;29;9999653;-68
2022/09/10 08:51:07;;;;;;;32.28;26.58;;;;;;;36.54;56.52;98122.69;4825474;29;20198;-68
2022/09/10 08:54:27;;;;;;;36.10;28.65;;;;;;;36.14;56.93;98110.75;4830929;29;20144;-69
2022/09/10 08:58:13;;;;;;;43.50;26.98;;;;;;;35.93;55.23;98105.97;4836263;29;20064;-70
2022/09/10 09:01:35;;;;;;;35.08;25.90;;;;;;;36.28;54.26;98096.78;4865435;29;20074;-69
2022/09/10 09:04:57;;;;;;;35.15;25.77;;;;;;;36.32;55.15;98091.19;4836134;29;20095;-68
2022/09/10 09:08:16;;;;;;;33.33;24.15;;;;;;;36.58;54.35;98075.94;4846143;29;20053;-69
2022/09/10 09:11:39;;;;;;;32.95;24.63;;;;;;;36.45;54.13;98062.41;4846307;29;20330;-68
2022/09/10 09:14:59;;;;;;;32.10;24.77;;;;;;;36.51;53.45;98064.78;4835696;29;20144;-69
2022/09/10 09:18:26;;;;;;;31.00;23.95;;;;;;;36.34;52.73;98050.44;4850057;29;20087;-71
2022/09/10 09:21:51;;;;;;;25.80;22.67;;;;;;;35.76;53.54;98055.28;4843466;29;20063;-69
2022/09/10 09:25:08;;;;;;;28.57;23.27;;;;;;;36.07;53.61;98036.91;4505781;29;10001500;-68
2022/09/10 09:28:34;;;;;;;31.05;24.20;;;;;;;35.98;52.58;98024.56;4847653;29;20076;-68
2022/09/10 09:31:43;;;;;;;29.38;22.83;;;;;;;36.10;52.60;98020.56;4856917;29;20057;-70
2022/09/10 09:34:40;;;;;;;30.83;24.17;;;;;;;36.12;52.01;98009.78;4848852;29;20056;-69
2022/09/10 09:37:33;;;;;;;;;;;;;;;36.11;54.82;98002.59;4850215;29;20063;-67
2022/09/10 09:40:59;;;;;;;33.88;23.80;;;;;;;35.51;51.87;98009.81;4868214;29;20312;-69
2022/09/10 09:44:02;;;;;;;27.80;23.27;;;;;;;35.76;49.74;98001.47;4835907;29;20048;-69
2022/09/10 09:46:55;;;;;;;28.50;23.27;;;;;;;35.06;55.59;98010.09;4839954;29;20057;-70
2022/09/10 09:49:49;;;;;;;26.13;21.77;;;;;;;35.09;50.15;98009.34;4838248;29;20049;-69
2022/09/10 09:52:32;;;;;;;;;;;;;;;34.85;53.22;98008.06;4856768;29;20113;-68
2022/09/10 09:55:29;;;;;;;27.98;21.40;;;;;;;34.65;56.72;98005.59;4865184;29;19950;-68
2022/09/10 09:58:31;;;;;;;24.67;22.05;;;;;;;34.33;52.55;98005.44;4851842;29;20053;-68
2022/09/10 10:01:27;;;;;;;31.17;23.55;;;;;;;34.14;58.10;98012.84;4844521;29;20053;-70
2022/09/10 10:04:33;;;;;;;30.73;23.67;;;;;;;34.47;53.61;98018.63;4851488;29;20065;-69
2022/09/10 10:07:31;;;;;;;32.95;24.90;;;;;;;34.26;57.03;98016.53;4850787;29;20348;-71
2022/09/10 10:10:30;;;;;;;28.25;23.85;;;;;;;34.28;56.29;97997.44;4848237;29;20106;-70
2022/09/10 10:13:23;;;;;;;33.30;24.33;;;;;;;34.26;52.94;98003.44;4856393;29;20053;-67
2022/09/10 10:16:40;;;;;;;29.52;23.90;;;;;;;34.22;53.88;98007.38;4838116;29;20085;-68
2022/09/10 10:19:37;;;;;;;32.72;25.52;;;;;;;34.31;55.12;98002.25;4837955;29;20433;-70
2022/09/10 10:22:31;;;;;;;31.85;22.48;;;;;;;34.18;51.69;97990.63;4821617;29;20509;-67
2022/09/10 10:25:37;;;;;;;33.65;24.35;;;;;;;34.30;49.68;97992.31;4858722;29;20053;-70
2022/09/10 10:28:34;;;;;;;31.30;23.85;;;;;;;34.12;53.97;97992.97;4854189;29;20049;-71
2022/09/10 10:31:18;;;;;;;33.80;25.73;;;;;;;34.01;54.10;97989.31;4825240;29;20061;-69
2022/09/10 10:34:30;;;;;;;32.20;24.90;;;;;;;34.26;55.42;97986.72;4855427;29;20071;-71
2022/09/10 10:37:22;;;;;;;34.08;25.15;;;;;;;34.43;57.94;97974.06;4851636;29;20053;-69
2022/09/10 10:40:37;;;;;;;28.75;25.33;;;;;;;34.58;55.80;97974.09;4852113;29;20045;-70
2022/09/10 10:43:34;;;;;;;35.97;24.90;;;;;;;34.58;53.49;97974.09;4855611;29;20058;-68
2022/09/10 10:46:47;;;;;;;37.85;26.55;;;;;;;34.22;58.66;97965.59;4856160;29;20085;-69
2022/09/10 10:49:52;;;;;;;29.75;24.15;;;;;;;34.49;54.06;97960.53;4856043;29;20057;-69
2022/09/10 10:52:43;;;;;;;33.80;25.80;;;;;;;34.27;56.96;97954.88;4872803;29;20057;-67
2022/09/10 10:55:44;;;;;;;29.85;24.98;;;;;;;34.40;54.02;97938.63;4838281;29;20061;-67
2022/09/10 10:58:45;;;;;;;29.27;24.02;;;;;;;34.32;57.93;97945.38;4851984;29;20102;-68
2022/09/10 11:02:16;;;;;;;32.33;24.67;;;;;;;34.31;52.59;97935.41;4870281;29;20057;-67
2022/09/10 11:05:00;;;;;;;33.83;25.13;;;;;;;34.16;55.86;97944.88;4855305;29;20140;-68
2022/09/10 11:07:50;;;;;;;31.60;25.52;;;;;;;34.21;55.60;97941.72;4862289;29;20118;-66
2022/09/10 11:10:51;;;;;;;29.80;24.35;;;;;;;34.10;53.30;97942.44;4860483;29;20105;-68
2022/09/10 11:14:01;;;;;;;44.28;26.10;;;;;;;34.00;56.01;97937.63;4859505;29;20055;-70
2022/09/10 11:17:02;;;;;;;35.28;27.15;;;;;;;33.79;58.04;97929.16;4876462;29;20057;-71
2022/09/10 11:20:13;;;;;;;27.25;23.33;;;;;;;33.94;53.99;97936.41;4869162;29;20412;-69
2022/09/10 11:23:35;;;;;;;26.05;23.02;;;;;;;34.02;53.29;97934.44;4854717;29;20041;-72
2022/09/10 11:26:47;;;;;;;30.90;24.40;;;;;;;33.86;54.85;97920.81;4866978;29;20061;-69
2022/09/10 11:29:47;;;;;;;31.42;25.10;;;;;;;33.81;52.33;97929.56;4868977;29;20131;-70
2022/09/10 11:32:59;;;;;;;38.90;25.45;;;;;;;33.83;53.59;97932.75;4872778;29;20049;-69
2022/09/10 11:36:25;;;;;;;28.15;23.90;;;;;;;33.78;52.97;97930.31;4868174;29;20057;-69
2022/09/10 11:39:33;;;;;;;35.30;25.25;;;;;;;33.75;52.25;97926.34;4868578;29;20139;-69
2022/09/10 11:42:51;;;;;;;39.70;26.27;;;;;;;33.57;57.36;97920.59;4865437;29;20441;-68
2022/09/10 11:46:05;;;;;;;34.70;28.63;;;;;;;33.52;58.67;97915.44;4875547;29;20047;-68
2022/09/10 11:49:25;;;;;;;36.20;28.27;;;;;;;33.85;58.24;97927.59;4878918;29;20092;-67
2022/09/10 11:52:34;;;;;;;34.78;27.92;;;;;;;33.89;60.33;97925.63;4876346;29;20136;-68
2022/09/10 11:55:48;;;;;;;38.95;29.77;;;;;;;34.10;58.84;97916.59;4850582;29;20064;-68
2022/09/10 11:58:48;;;;;;;36.10;29.00;;;;;;;34.28;58.48;97914.72;4866017;29;20493;-67
2022/09/10 12:02:25;;;;;;;48.22;31.73;;;;;;;34.18;62.83;97914.66;4854009;29;20095;-70
2022/09/10 12:05:45;;;;;;;44.08;31.85;;;;;;;34.27;62.52;97912.31;4869474;29;20053;-68
2022/09/10 12:08:59;;;;;;;51.45;34.10;;;;;;;33.91;64.54;97923.25;4868465;29;20061;-67
2022/09/10 12:12:26;;;;;;;48.28;35.47;;;;;;;33.60;69.54;97930.19;4872142;29;20056;-72
2022/09/10 12:15:36;;;;;;;51.92;35.67;;;;;;;33.42;69.67;97921.69;4853056;29;20136;-67
2022/09/10 12:18:51;;;;;;;59.15;41.60;;;;;;;33.13;75.60;97936.19;4866984;29;20820;-69
2022/09/10 12:21:58;;;;;;;59.97;41.85;;;;;;;32.93;76.45;97932.78;4880231;29;20056;-71
2022/09/10 12:25:08;;;;;;;;;;;;;;;33.01;74.40;97933.63;4537666;29;9999930;-69
2022/09/10 12:29:05;;;;;;;57.92;41.75;;;;;;;32.77;74.98;97919.13;4842829;29;20462;-70
2022/09/10 12:32:22;;;;;;;64.43;43.60;;;;;;;31.73;82.46;97903.13;4872970;29;20046;-70
2022/09/10 12:35:38;;;;;;;56.03;39.72;;;;;;;32.01;75.77;97908.25;4878407;29;20081;-71
2022/09/10 12:39:26;;;;;;;65.97;41.75;;;;;;;32.22;77.43;97882.78;4880008;29;20049;-69
2022/09/10 12:42:44;;;;;;;60.75;39.33;;;;;;;31.66;77.25;97884.38;4865580;29;20556;-69
2022/09/10 12:46:15;;;;;;;61.78;37.58;;;;;;;31.45;77.78;97867.41;4876650;29;20499;-67
2022/09/10 12:49:24;;;;;;;57.88;36.30;;;;;;;31.28;79.12;97852.09;4881565;29;20151;-71
2022/09/10 12:52:41;;;;;;;45.97;36.70;;;;;;;31.20;80.03;97851.19;4868033;29;20488;-69
2022/09/10 12:56:06;;;;;;;54.20;38.05;;;;;;;31.21;80.86;97847.28;4859943;29;20063;-70
2022/09/10 12:59:53;;;;;;;53.65;37.92;;;;;;;31.45;80.15;97850.78;4866824;29;20088;-71
2022/09/10 13:03:25;;;;;;;53.72;37.83;;;;;;;31.50;81.16;97853.28;4864153;29;20056;-69
2022/09/10 13:06:43;;;;;;;52.13;39.72;;;;;;;31.54;81.91;97856.88;4872456;29;20059;-71
2022/09/10 13:10:25;;;;;;;62.65;40.35;;;;;;;31.68;81.21;97870.16;4874183;29;20053;-70
2022/09/10 13:13:40;;;;;;;56.75;42.00;;;;;;;31.68;81.63;97864.59;4881746;29;20057;-71
2022/09/10 13:16:44;;;;;;;64.22;44.17;;;;;;;31.85;81.06;97861.25;4859830;29;20476;-72
2022/09/10 13:19:55;;;;;;;57.83;43.13;;;;;;;31.80;81.80;97859.63;4873238;29;20192;-72
2022/09/10 13:23:10;;;;;;;64.88;47.67;;;;;;;31.87;81.58;97849.78;4870588;29;20049;-72
2022/09/10 13:26:37;;;;;;;65.20;47.70;;;;;;;31.90;81.95;97854.59;4862148;29;20083;-72
2022/09/10 13:30:08;;;;;;;68.88;46.13;;;;;;;31.86;81.90;97845.44;4853870;29;20060;-73
2022/09/10 13:33:18;;;;;;;57.92;43.45;;;;;;;31.99;81.92;97835.69;4873947;29;20060;-72
2022/09/10 13:37:12;;;;;;;66.57;45.42;;;;;;;31.92;81.56;97832.81;4878200;29;20520;-73
2022/09/10 13:40:47;;;;;;;62.22;45.38;;;;;;;32.03;81.52;97833.78;4880272;29;20052;-73
2022/09/10 13:44:36;;;;;;;61.47;44.40;;;;;;;32.13;81.76;97835.88;4866349;29;20053;-69
2022/09/10 13:48:01;;;;;;;52.15;38.67;;;;;;;31.99;79.13;97817.06;4854773;29;20042;-74
2022/09/10 13:51:04;;;;;;;49.55;39.22;;;;;;;31.95;81.00;97829.31;4864677;29;20144;-70
2022/09/10 13:53:51;;;;;;;56.75;37.25;;;;;;;31.78;79.76;97822.34;4868081;29;20094;-70
2022/09/10 13:56:44;;;;;;;52.75;37.80;;;;;;;31.57;79.91;97831.97;4875081;29;20425;-71
2022/09/10 13:59:38;;;;;;;48.87;36.03;;;;;;;31.79;77.69;97827.50;4873699;29;20128;-74
2022/09/10 14:02:47;;;;;;;48.78;34.70;;;;;;;31.88;79.11;97826.44;4877410;29;20380;-68
2022/09/10 14:05:53;;;;;;;48.80;35.15;;;;;;;31.86;79.83;97826.81;4876973;29;20056;-74
2022/09/10 14:08:55;;;;;;;45.72;34.63;;;;;;;31.87;79.28;97830.38;4523625;29;10000526;-76
2022/09/10 14:11:47;;;;;;;52.30;36.65;;;;;;;31.75;79.38;97829.44;4855173;29;20593;-69
2022/09/10 14:14:42;;;;;;;43.78;33.50;;;;;;;31.90;78.55;97838.75;4867972;29;20049;-72
2022/09/10 14:17:41;;;;;;;43.13;33.97;;;;;;;31.84;78.87;97834.72;4847101;29;20054;-73
2022/09/10 14:20:34;;;;;;;47.40;35.63;;;;;;;31.73;79.21;97839.31;4855284;29;20045;-73
2022/09/10 14:23:23;;;;;;;42.88;34.83;;;;;;;31.60;79.28;97841.50;4860001;29;20064;-73
2022/09/10 14:26:23;;;;;;;47.42;34.63;;;;;;;31.69;80.01;97850.38;4862745;29;20045;-73
2022/09/10 14:29:30;;;;;;;44.55;35.22;;;;;;;31.70;79.41;97857.53;4860605;29;20147;-74
2022/09/10 14:32:36;;;;;;;45.05;36.20;;;;;;;31.63;80.39;97862.19;4850488;29;20053;-76
2022/09/10 14:35:50;;;;;;;43.03;35.03;;;;;;;31.53;80.08;97861.66;4845918;29;20049;-73
2022/09/10 14:38:39;;;;;;;48.55;35.67;;;;;;;31.54;80.21;97854.91;4847198;29;20053;-73
2022/09/10 14:41:37;;;;;;;45.78;36.83;;;;;;;31.65;79.75;97865.38;4849953;29;20053;-71